Time;durP1;ratioP1;P1;durP2;ratioP2;P2;SDS_P1;SDS_P2;PMS_P1;PMS_P2;Temp;Humidity;BMP_temperature;BMP_pressure;BME280_temperature;BME280_humidity;BME280_pressure;Samples;Min_cycle;Max_cycle;Signal;HPM_P1;HPM_P2
2022/03/25 00:01:29;;;;;;;10.8;7.4;;;;;;;6.21;61.07324;946.0821;;;;
2022/03/25 00:03:57;;;;;;;9.8;7;;;;;;;6.11;61.28418;946.0904;;;;
2022/03/25 00:06:23;;;;;;;11.5;7.5;;;;;;;5.97;61.6582;946.1083;;;;
2022/03/25 00:08:56;;;;;;;11.7;7.8;;;;;;;5.92;61.96777;946.0818;;;;
2022/03/25 00:11:30;;;;;;;11.4;7.3;;;;;;;5.87;62.00684;946.063;;;;
2022/03/25 00:13:57;;;;;;;9.1;6.6;;;;;;;5.87;62.07422;946.0773;;;;
2022/03/25 00:16:34;;;;;;;8.5;6.5;;;;;;;5.94;61.86914;946.074;;;;
2022/03/25 00:19:09;;;;;;;8.5;6.4;;;;;;;5.77;62.23926;946.0217;;;;
2022/03/25 00:21:38;;;;;;;8.2;6.1;;;;;;;5.6;62.98242;946.0239;;;;
2022/03/25 00:24:11;;;;;;;9.7;6.5;;;;;;;5.48;63.66406;946.0381;;;;
2022/03/25 00:26:36;;;;;;;8.3;5.9;;;;;;;5.37;63.99805;946.02;;;;
2022/03/25 00:29:06;;;;;;;10;6.6;;;;;;;5.3;64.4043;946.0154;;;;
2022/03/25 00:31:31;;;;;;;7.4;5.9;;;;;;;5.41;64.00391;945.9222;;;;
2022/03/25 00:33:56;;;;;;;7.6;5.8;;;;;;;5.49;63.64355;945.988;;;;
2022/03/25 00:36:26;;;;;;;10.1;6.2;;;;;;;5.56;63.49609;946.0011;;;;
2022/03/25 00:38:50;;;;;;;9.8;6.1;;;;;;;5.55;63.62988;945.9786;;;;
2022/03/25 00:41:16;;;;;;;7.4;5.7;;;;;;;5.43;64.12207;945.9557;;;;
2022/03/25 00:43:46;;;;;;;8.5;6.2;;;;;;;5.34;64.6582;945.9483;;;;
2022/03/25 00:47:02;;;;;;;8.1;6.1;;;;;;;5.21;65.30469;945.9453;;;;
2022/03/25 00:49:27;;;;;;;8.1;5.9;;;;;;;5.19;65.43848;945.8742;;;;
2022/03/25 00:51:54;;;;;;;7.9;5.6;;;;;;;5.23;65.50977;945.8647;;;;
2022/03/25 00:54:18;;;;;;;9.1;6.2;;;;;;;5.37;64.86523;945.9077;;;;
2022/03/25 00:56:43;;;;;;;8.8;6;;;;;;;5.49;64.31055;945.9092;;;;
2022/03/25 00:59:09;;;;;;;7.9;6;;;;;;;5.44;64.2793;945.944;;;;
2022/03/25 01:01:33;;;;;;;15.4;9.1;;;;;;;5.43;64.3125;945.886;;;;
2022/03/25 01:03:58;;;;;;;12.7;8.6;;;;;;;5.38;64.27148;945.9351;;;;
2022/03/25 01:06:24;;;;;;;19.5;13;;;;;;;5.51;63.4668;945.8508;;;;
2022/03/25 01:08:49;;;;;;;9.5;7.2;;;;;;;5.51;63.43262;945.8798;;;;
2022/03/25 01:11:16;;;;;;;9.3;6.7;;;;;;;5.55;63.50586;945.9323;;;;
2022/03/25 01:13:41;;;;;;;10;6.4;;;;;;;5.58;63.36426;945.908;;;;
2022/03/25 01:16:07;;;;;;;8.3;6.1;;;;;;;5.47;63.50488;945.887;;;;
2022/03/25 01:18:32;;;;;;;8.7;5.3;;;;;;;5.46;63.59375;945.8494;;;;
2022/03/25 01:20:57;;;;;;;9.5;5.9;;;;;;;5.31;64.32715;945.8524;;;;
2022/03/25 01:23:22;;;;;;;10.3;6.2;;;;;;;5.13;65.04395;945.7473;;;;
2022/03/25 01:25:51;;;;;;;7.5;5.7;;;;;;;4.95;65.69434;945.8233;;;;
2022/03/25 01:28:16;;;;;;;9.2;6;;;;;;;5.02;65.51367;945.8102;;;;
2022/03/25 01:30:42;;;;;;;7.3;5.8;;;;;;;5.1;65.31055;945.8449;;;;
2022/03/25 01:33:08;;;;;;;9.7;6.3;;;;;;;5.15;64.95801;945.7902;;;;
2022/03/25 01:35:33;;;;;;;11.6;6.5;;;;;;;5.18;64.90527;945.7811;;;;
2022/03/25 01:37:59;;;;;;;8.6;6.3;;;;;;;5.21;64.62793;945.7802;;;;
2022/03/25 01:40:55;;;;;;;7.5;5.6;;;;;;;5.28;64.32422;945.8024;;;;
2022/03/25 01:43:20;;;;;;;10.1;6.9;;;;;;;5.28;64.5498;945.8039;;;;
2022/03/25 01:46:17;;;;;;;12.2;7.5;;;;;;;5.29;64.69629;945.8657;;;;
2022/03/25 01:48:41;;;;;;;10.4;6.9;;;;;;;5.25;64.89355;945.7925;;;;
2022/03/25 01:51:07;;;;;;;9.8;7;;;;;;;5.15;65.21582;945.8098;;;;
2022/03/25 01:53:33;;;;;;;14.1;7.1;;;;;;;5.21;65.1582;945.8239;;;;
2022/03/25 01:55:59;;;;;;;12.7;10.3;;;;;;;5.23;64.99316;945.79;;;;
2022/03/25 01:58:24;;;;;;;9.2;6.2;;;;;;;5.28;64.79785;945.8339;;;;
2022/03/25 02:00:49;;;;;;;9.7;6.5;;;;;;;5.25;64.73633;945.8089;;;;
2022/03/25 02:03:16;;;;;;;7.5;6.1;;;;;;;5.31;64.39648;945.8067;;;;
2022/03/25 02:05:39;;;;;;;7.6;5.8;;;;;;;5.19;64.59277;945.7527;;;;
2022/03/25 02:08:04;;;;;;;9.1;6.1;;;;;;;5;65.1709;945.7393;;;;
2022/03/25 02:10:29;;;;;;;8.8;6.2;;;;;;;4.86;65.74609;945.683;;;;
2022/03/25 02:12:55;;;;;;;8.1;6.1;;;;;;;4.72;66.21094;945.6973;;;;
2022/03/25 02:15:24;;;;;;;7.1;6;;;;;;;4.68;66.31641;945.6956;;;;
2022/03/25 02:17:51;;;;;;;8.9;5.9;;;;;;;4.62;66.53223;945.693;;;;
2022/03/25 02:20:16;;;;;;;8.2;6.2;;;;;;;4.57;66.76172;945.7353;;;;
2022/03/25 02:22:42;;;;;;;8.7;6.4;;;;;;;4.41;67.28809;945.7347;;;;
2022/03/25 02:25:08;;;;;;;7.9;6.1;;;;;;;4.47;67.27539;945.7468;;;;
2022/03/25 02:27:32;;;;;;;7.4;5.7;;;;;;;4.45;67.29395;945.7126;;;;
2022/03/25 02:29:58;;;;;;;9.3;6.5;;;;;;;4.38;67.54102;945.7252;;;;
2022/03/25 02:32:24;;;;;;;8;6.5;;;;;;;4.17;68.2168;945.7477;;;;
2022/03/25 02:35:03;;;;;;;8.1;6.3;;;;;;;4.1;68.8252;945.7605;;;;
2022/03/25 02:37:42;;;;;;;7.8;5.8;;;;;;;4.08;68.76563;945.7186;;;;
2022/03/25 02:40:07;;;;;;;10.8;7.3;;;;;;;4.03;69.21875;945.7595;;;;
2022/03/25 02:43:13;;;;;;;10.6;8.1;;;;;;;3.99;69.41309;945.7755;;;;
2022/03/25 02:45:38;;;;;;;10.9;7.8;;;;;;;4;69.48438;945.7649;;;;
2022/03/25 02:48:03;;;;;;;10.7;7.7;;;;;;;4.12;68.87305;945.8206;;;;
2022/03/25 02:50:28;;;;;;;11.1;7.4;;;;;;;4.16;68.91406;945.8144;;;;
2022/03/25 02:52:54;;;;;;;8.3;7;;;;;;;4.1;69.29785;945.74;;;;
2022/03/25 02:57:43;;;;;;;10;7;;;;;;;4.2;69.07617;945.831;;;;
2022/03/25 03:00:09;;;;;;;8;6.5;;;;;;;4.3;68.66602;945.8138;;;;
2022/03/25 03:02:35;;;;;;;8.7;6.6;;;;;;;4.32;68.43262;945.8013;;;;
2022/03/25 03:04:59;;;;;;;9;6.6;;;;;;;4.34;68.14258;945.8551;;;;
2022/03/25 03:07:25;;;;;;;9.1;6.5;;;;;;;4.37;67.91113;945.7619;;;;
2022/03/25 03:09:50;;;;;;;8.6;6.4;;;;;;;4.38;67.67773;945.7639;;;;
2022/03/25 03:12:15;;;;;;;9.1;6.3;;;;;;;4.38;67.65527;945.7512;;;;
2022/03/25 03:14:40;;;;;;;7.7;6.1;;;;;;;4.34;67.89551;945.7502;;;;
2022/03/25 03:17:06;;;;;;;10.2;6.7;;;;;;;4.22;68.24805;945.8041;;;;
2022/03/25 03:19:56;;;;;;;8.6;6.6;;;;;;;4.18;68.52344;945.8603;;;;
2022/03/25 03:22:12;;;;;;;8;6.1;;;;;;;4.06;69.00879;945.8381;;;;
2022/03/25 03:24:37;;;;;;;7.8;6.4;;;;;;;4.04;69.07324;945.85;;;;
2022/03/25 03:27:04;;;;;;;12.5;7.4;;;;;;;3.85;69.89746;945.8398;;;;
2022/03/25 03:29:29;;;;;;;11;6.8;;;;;;;3.77;70.2998;945.8162;;;;
2022/03/25 03:31:54;;;;;;;9.7;6.4;;;;;;;3.6;71.04785;945.7162;;;;
2022/03/25 03:34:19;;;;;;;10.3;6.9;;;;;;;3.49;71.63477;945.7781;;;;
2022/03/25 03:36:46;;;;;;;10.6;7.1;;;;;;;3.59;71.38086;945.782;;;;
2022/03/25 03:40:11;;;;;;;8.7;6.4;;;;;;;3.63;71.18555;945.8032;;;;
2022/03/25 03:42:25;;;;;;;9.2;6.6;;;;;;;3.67;70.78906;945.8013;;;;
2022/03/25 03:44:50;;;;;;;9.1;6.4;;;;;;;3.64;71.15332;945.7974;;;;
2022/03/25 03:47:15;;;;;;;8.5;6.5;;;;;;;3.62;70.99316;945.78;;;;
2022/03/25 03:49:50;;;;;;;8;6.5;;;;;;;3.72;71.14453;945.743;;;;
2022/03/25 03:52:15;;;;;;;8.2;6.2;;;;;;;3.86;70.47168;945.7823;;;;
2022/03/25 03:54:40;;;;;;;10.2;7.5;;;;;;;3.85;70.68457;945.7484;;;;
2022/03/25 03:57:07;;;;;;;9.7;7.2;;;;;;;3.87;70.49609;945.7478;;;;
2022/03/25 03:59:38;;;;;;;9.9;7.1;;;;;;;3.93;69.9668;945.728;;;;
2022/03/25 04:06:07;;;;;;;12.8;7.3;;;;;;;3.8;69.75391;945.7678;;;;
2022/03/25 04:08:32;;;;;;;10.9;7.7;;;;;;;3.83;69.43359;945.7704;;;;
2022/03/25 04:12:10;;;;;;;10;7.6;;;;;;;3.77;69.39941;945.7744;;;;
2022/03/25 04:14:22;;;;;;;8.7;6.5;;;;;;;3.38;70.87598;945.7255;;;;
2022/03/25 04:16:48;;;;;;;9.6;7.2;;;;;;;3.23;71.87109;945.7435;;;;
2022/03/25 04:19:13;;;;;;;12.1;7.5;;;;;;;3.17;72.4668;945.6157;;;;
2022/03/25 04:21:38;;;;;;;8.5;6.1;;;;;;;3.2;72.49512;945.6926;;;;
2022/03/25 04:24:03;;;;;;;9.1;6.7;;;;;;;3.18;72.7832;945.7524;;;;
2022/03/25 04:26:38;;;;;;;10;6.7;;;;;;;3.17;72.91699;945.7388;;;;
2022/03/25 04:29:04;;;;;;;9.8;7.1;;;;;;;3.24;72.66992;945.6516;;;;
2022/03/25 04:31:28;;;;;;;8.7;6.5;;;;;;;3.29;72.55566;945.699;;;;
2022/03/25 04:33:54;;;;;;;7.6;6.3;;;;;;;3.24;72.89453;945.7217;;;;
2022/03/25 04:36:19;;;;;;;9.7;6.9;;;;;;;3.2;73.16895;945.6479;;;;
2022/03/25 04:38:45;;;;;;;8.7;6.8;;;;;;;3.24;73.03125;945.6471;;;;
2022/03/25 04:41:11;;;;;;;13.7;7.4;;;;;;;3.28;73.01465;945.616;;;;
2022/03/25 04:43:36;;;;;;;9.3;6.9;;;;;;;3.32;72.9209;945.5849;;;;
2022/03/25 04:46:01;;;;;;;11.8;7.9;;;;;;;3.36;72.78027;945.512;;;;
2022/03/25 04:49:24;;;;;;;10.1;8;;;;;;;3.42;72.62402;945.5948;;;;
2022/03/25 04:51:54;;;;;;;11.3;7;;;;;;;3.41;72.48438;945.5759;;;;
2022/03/25 04:54:21;;;;;;;8.9;6.5;;;;;;;3.36;72.43359;945.6262;;;;
2022/03/25 04:56:46;;;;;;;9.8;6.3;;;;;;;3.35;72.40918;945.5747;;;;
2022/03/25 04:59:12;;;;;;;12.4;7.1;;;;;;;3.44;72.12207;945.5524;;;;
2022/03/25 05:01:37;;;;;;;15.5;7.1;;;;;;;3.43;71.97266;945.6092;;;;
2022/03/25 05:04:38;;;;;;;8.2;6.5;;;;;;;3.47;71.80078;945.6694;;;;
2022/03/25 05:07:04;;;;;;;9.7;6.8;;;;;;;3.49;71.47754;945.7138;;;;
2022/03/25 05:09:29;;;;;;;9.4;6.8;;;;;;;3.52;71.0791;945.668;;;;
2022/03/25 05:11:55;;;;;;;9.7;6.7;;;;;;;3.47;71.0918;945.7441;;;;
2022/03/25 05:16:52;;;;;;;9.2;6.3;;;;;;;3.53;70.80957;945.8147;;;;
2022/03/25 05:19:10;;;;;;;10;6.8;;;;;;;3.36;71.56836;945.8301;;;;
2022/03/25 05:21:35;;;;;;;10.4;6.5;;;;;;;3.55;71.05957;945.7377;;;;
2022/03/25 05:24:00;;;;;;;17.5;10;;;;;;;3.53;71.12402;945.7803;;;;
2022/03/25 05:26:25;;;;;;;17.1;9.7;;;;;;;3.45;71.60645;945.7537;;;;
2022/03/25 05:28:50;;;;;;;12.8;8.6;;;;;;;3.3;72.16406;945.764;;;;
2022/03/25 05:31:16;;;;;;;10.9;7.2;;;;;;;3.08;73.05859;945.8412;;;;
2022/03/25 05:33:41;;;;;;;10.4;8.2;;;;;;;3.03;73.66699;945.8569;;;;
2022/03/25 05:36:06;;;;;;;10.6;7.8;;;;;;;3.07;73.63965;945.8861;;;;
2022/03/25 05:38:31;;;;;;;11.3;6.9;;;;;;;3.18;73.45605;945.894;;;;
2022/03/25 05:40:56;;;;;;;23.9;12.8;;;;;;;3.31;73.10742;945.8486;;;;
2022/03/25 05:43:21;;;;;;;24.5;13.6;;;;;;;3.34;72.96777;945.8809;;;;
2022/03/25 05:45:47;;;;;;;26;15.4;;;;;;;3.43;72.76953;945.9534;;;;
2022/03/25 05:48:12;;;;;;;22.4;13.8;;;;;;;3.55;72.11719;945.9482;;;;
2022/03/25 05:50:38;;;;;;;29.2;15.6;;;;;;;3.69;71.5;945.9922;;;;
2022/03/25 05:55:28;;;;;;;26.7;15;;;;;;;4.45;69.0498;945.9548;;;;
2022/03/25 05:57:55;;;;;;;23.5;14.1;;;;;;;5.29;65.95996;945.9439;;;;
2022/03/25 06:02:45;;;;;;;19.9;11;;;;;;;5.93;63.28027;945.9102;;;;
2022/03/25 06:05:12;;;;;;;20.6;10.3;;;;;;;5.98;62.8125;945.9403;;;;
2022/03/25 06:07:38;;;;;;;10.4;7.2;;;;;;;6.15;61.9668;945.8839;;;;
2022/03/25 06:10:04;;;;;;;11.7;6.8;;;;;;;6.12;61.94141;945.9739;;;;
2022/03/25 06:12:28;;;;;;;10.1;7.1;;;;;;;6.33;61.29199;945.9006;;;;
2022/03/25 06:14:54;;;;;;;11;6.9;;;;;;;6.58;60.19727;945.9022;;;;
2022/03/25 06:17:20;;;;;;;10.5;5.8;;;;;;;6.84;58.94336;945.8989;;;;
2022/03/25 06:19:45;;;;;;;11.8;7;;;;;;;6.75;59.44043;945.9341;;;;
2022/03/25 06:22:10;;;;;;;13.6;7.8;;;;;;;6.91;59.03223;945.9512;;;;
2022/03/25 06:24:35;;;;;;;15.4;9.1;;;;;;;7.03;59.15039;945.8267;;;;
2022/03/25 06:27:00;;;;;;;13.9;7.9;;;;;;;7.61;57.18945;945.8228;;;;
2022/03/25 06:29:25;;;;;;;12;6.4;;;;;;;8.35;55.00391;945.8435;;;;
2022/03/25 06:31:52;;;;;;;11.8;6.9;;;;;;;8.8;53.09473;945.8387;;;;
2022/03/25 06:34:20;;;;;;;15.1;6.9;;;;;;;9.2;52.16602;945.8178;;;;
2022/03/25 06:36:42;;;;;;;11.5;6.7;;;;;;;10.44;48.82227;945.7891;;;;
2022/03/25 06:39:07;;;;;;;14.2;6.5;;;;;;;10.92;47.26465;945.8418;;;;
2022/03/25 06:41:32;;;;;;;12.9;6.2;;;;;;;11.49;46.14844;945.7332;;;;
2022/03/25 06:43:57;;;;;;;14.5;6.9;;;;;;;11.39;46.11523;945.7183;;;;
2022/03/25 06:46:22;;;;;;;11.4;6.7;;;;;;;11.6;45.03906;945.7431;;;;
2022/03/25 06:48:47;;;;;;;10;6;;;;;;;11.11;45.94922;945.7623;;;;
2022/03/25 06:51:12;;;;;;;6.4;5.5;;;;;;;11.6;45.35938;945.7678;;;;
2022/03/25 06:53:37;;;;;;;14.8;7.8;;;;;;;11.31;44.58496;945.7806;;;;
2022/03/25 06:56:04;;;;;;;15;8;;;;;;;11.21;45.58105;945.8254;;;;
2022/03/25 07:01:35;;;;;;;13.8;6.9;;;;;;;10.86;46.25293;945.8103;;;;
2022/03/25 07:04:02;;;;;;;15.4;8.3;;;;;;;11.17;45.96582;945.7679;;;;
2022/03/25 07:06:25;;;;;;;9.2;5.7;;;;;;;10.79;46.50781;945.795;;;;
2022/03/25 07:08:50;;;;;;;20.6;6.9;;;;;;;12.15;43.9502;945.7731;;;;
2022/03/25 07:11:17;;;;;;;12.1;5.3;;;;;;;12.4;43.11523;945.7428;;;;
2022/03/25 07:13:42;;;;;;;5.9;4.5;;;;;;;13.22;40.63477;945.7239;;;;
2022/03/25 07:16:08;;;;;;;8.7;5;;;;;;;12.7;41.38965;945.7644;;;;
2022/03/25 07:18:34;;;;;;;8.1;4.6;;;;;;;11.88;43.10938;945.7416;;;;
2022/03/25 07:21:00;;;;;;;8.7;5.1;;;;;;;12.92;40.6416;945.726;;;;
2022/03/25 07:23:23;;;;;;;8.1;4.9;;;;;;;13.23;40.70508;945.6577;;;;
2022/03/25 07:25:50;;;;;;;6.3;4.4;;;;;;;12.98;40.19922;945.6323;;;;
2022/03/25 07:28:15;;;;;;;8.2;4.7;;;;;;;14.37;38.23047;945.6035;;;;
2022/03/25 07:30:41;;;;;;;7.5;4.5;;;;;;;14.53;36.49316;945.6195;;;;
2022/03/25 07:33:05;;;;;;;10;4.7;;;;;;;13.57;38.37891;945.6023;;;;
2022/03/25 07:35:31;;;;;;;7.9;4.9;;;;;;;14.33;37.68555;945.6209;;;;
2022/03/25 07:37:56;;;;;;;20.2;6.3;;;;;;;16.65;33.9375;945.5356;;;;
2022/03/25 07:40:29;;;;;;;10.3;5.2;;;;;;;16.92;33.29883;945.4751;;;;
2022/03/25 07:42:58;;;;;;;12.3;5.2;;;;;;;18.33;31.44043;945.5397;;;;
2022/03/25 07:45:21;;;;;;;6.8;4.6;;;;;;;16.72;32.62305;945.4641;;;;
2022/03/25 07:47:46;;;;;;;8;4.8;;;;;;;16.74;33.18066;945.4978;;;;
2022/03/25 07:50:12;;;;;;;7.8;4.9;;;;;;;14.95;36.19434;945.5173;;;;
2022/03/25 07:52:36;;;;;;;14.5;13.1;;;;;;;15.15;36.41895;945.483;;;;
2022/03/25 07:55:03;;;;;;;9.7;5;;;;;;;16.04;34.94336;945.4719;;;;
2022/03/25 07:57:28;;;;;;;7.1;4.3;;;;;;;16.24;33.89453;945.4311;;;;
2022/03/25 08:00:13;;;;;;;7.2;4.3;;;;;;;15.95;34.20801;945.5037;;;;
2022/03/25 08:02:37;;;;;;;9.3;4.3;;;;;;;16.76;33.72559;945.4559;;;;
2022/03/25 08:05:03;;;;;;;4.8;3.8;;;;;;;16.97;31.71387;945.4436;;;;
2022/03/25 08:07:28;;;;;;;7.8;4.5;;;;;;;16.96;32.41992;945.4363;;;;
2022/03/25 08:09:55;;;;;;;7.7;4.2;;;;;;;19.78;29.66699;945.44;;;;
2022/03/25 08:12:21;;;;;;;6.4;4.2;;;;;;;21.36;26.32031;945.4028;;;;
2022/03/25 08:14:46;;;;;;;8.7;4.5;;;;;;;20.78;26.69531;945.405;;;;
2022/03/25 08:17:12;;;;;;;6.6;4;;;;;;;21.98;26.4043;945.3909;;;;
2022/03/25 08:19:37;;;;;;;8.9;4.6;;;;;;;22.47;24.70898;945.4054;;;;
2022/03/25 08:22:01;;;;;;;6.8;4.2;;;;;;;19.43;28.61816;945.4451;;;;
2022/03/25 08:29:38;;;;;;;5;3.7;;;;;;;24.46;22.5332;945.2996;;;;
2022/03/25 08:32:02;;;;;;;8.6;4.2;;;;;;;25.93;21.37793;945.3141;;;;
2022/03/25 08:34:27;;;;;;;5.1;3.8;;;;;;;27.18;19.76563;945.3244;;;;
2022/03/25 08:37:03;;;;;;;4.4;3.7;;;;;;;26.34;20.6875;945.2881;;;;
2022/03/25 08:39:28;;;;;;;4.9;3.9;;;;;;;27.45;19.75293;945.2766;;;;
2022/03/25 08:41:53;;;;;;;4.9;3.7;;;;;;;28.83;18.20801;945.244;;;;
2022/03/25 08:44:18;;;;;;;5.8;4.3;;;;;;;27.48;18.75781;945.2416;;;;
2022/03/25 08:46:44;;;;;;;5.1;4.1;;;;;;;24.4;20.98633;945.3043;;;;
2022/03/25 08:49:10;;;;;;;5.7;4.1;;;;;;;25.13;20.86719;945.302;;;;
2022/03/25 08:51:35;;;;;;;5.9;3.6;;;;;;;26.03;20.89746;945.2608;;;;
2022/03/25 08:54:01;;;;;;;4.6;3.8;;;;;;;27.53;19.80469;945.2736;;;;
2022/03/25 08:56:27;;;;;;;5.5;3.9;;;;;;;25.89;20.50098;945.2774;;;;
2022/03/25 08:58:54;;;;;;;7.1;4;;;;;;;27.74;19.83789;945.249;;;;
2022/03/25 09:01:18;;;;;;;6.2;4.1;;;;;;;26.14;20.07422;945.2476;;;;
2022/03/25 09:03:45;;;;;;;6;3.9;;;;;;;27.84;18.2627;945.2202;;;;
2022/03/25 09:06:11;;;;;;;5.6;3.9;;;;;;;27.94;18.91992;945.2244;;;;
2022/03/25 09:08:35;;;;;;;5.3;4.1;;;;;;;29.07;17.8125;945.1513;;;;
2022/03/25 09:11:00;;;;;;;6.4;4.1;;;;;;;27.94;18.59961;945.1563;;;;
2022/03/25 09:13:26;;;;;;;5.1;4;;;;;;;29.36;17.15625;945.1611;;;;
2022/03/25 09:15:51;;;;;;;5.6;4.2;;;;;;;27.86;18.0498;945.1718;;;;
2022/03/25 09:18:18;;;;;;;7.7;4.4;;;;;;;26.13;18.96191;945.1841;;;;
2022/03/25 09:20:44;;;;;;;5.5;4.3;;;;;;;27.79;18.48535;945.2059;;;;
2022/03/25 09:23:08;;;;;;;8.2;4.9;;;;;;;28.29;18.75586;945.1692;;;;
2022/03/25 09:25:33;;;;;;;7.2;4.7;;;;;;;29.05;18.08594;945.1809;;;;
2022/03/25 09:27:58;;;;;;;7.9;4.7;;;;;;;28.56;17.85156;945.1548;;;;
2022/03/25 09:30:23;;;;;;;8.4;5.2;;;;;;;28.78;17.36133;945.1545;;;;
2022/03/25 09:32:48;;;;;;;7.6;5.3;;;;;;;29.14;16.96973;945.1149;;;;
2022/03/25 09:35:17;;;;;;;6.2;4.7;;;;;;;27.99;18.87402;945.1106;;;;
2022/03/25 09:37:42;;;;;;;5.9;5;;;;;;;28.27;17.80469;945.139;;;;
2022/03/25 09:40:08;;;;;;;6.7;5.1;;;;;;;28.58;17.55469;945.1201;;;;
2022/03/25 09:42:33;;;;;;;7.1;5.7;;;;;;;29.04;17.26367;945.0994;;;;
2022/03/25 09:44:59;;;;;;;8;5.3;;;;;;;28.92;17.88965;945.0923;;;;
2022/03/25 09:47:24;;;;;;;7.4;5.3;;;;;;;28.4;17.73828;945.0829;;;;
2022/03/25 09:49:49;;;;;;;8.5;6.2;;;;;;;26.46;18.63281;945.0934;;;;
2022/03/25 09:52:14;;;;;;;8.9;5.8;;;;;;;26.61;18.61523;945.0275;;;;
2022/03/25 09:54:41;;;;;;;10.5;6.6;;;;;;;25.84;19.8125;945.0486;;;;
2022/03/25 09:57:06;;;;;;;9.1;6.6;;;;;;;26.56;18.7666;945.0061;;;;
2022/03/25 09:59:32;;;;;;;9.6;7.1;;;;;;;25.15;20.16016;944.9872;;;;
2022/03/25 10:01:56;;;;;;;10.1;6.8;;;;;;;24.12;21.20898;944.9766;;;;
2022/03/25 10:04:21;;;;;;;9.7;7.1;;;;;;;24.42;20.8457;944.9414;;;;
2022/03/25 10:06:47;;;;;;;9;6.9;;;;;;;24.5;20.55469;944.8729;;;;
2022/03/25 10:09:12;;;;;;;10.6;7.2;;;;;;;24.39;21.5752;944.8502;;;;
2022/03/25 10:11:37;;;;;;;9.7;7;;;;;;;24.63;21.55078;944.9265;;;;
2022/03/25 10:14:02;;;;;;;10.3;6.9;;;;;;;25.1;21.46777;944.8904;;;;
2022/03/25 10:16:29;;;;;;;10.8;7.6;;;;;;;25.34;20.55762;944.8422;;;;
2022/03/25 10:18:55;;;;;;;14.9;8;;;;;;;25.1;20.41699;944.8271;;;;
2022/03/25 10:21:20;;;;;;;11.8;7.9;;;;;;;24.32;20.74707;944.7753;;;;
2022/03/25 10:23:45;;;;;;;10.6;7.3;;;;;;;25.27;20.53125;944.7828;;;;
2022/03/25 10:26:12;;;;;;;9.7;7.4;;;;;;;25.1;21.19629;944.7903;;;;
2022/03/25 10:28:40;;;;;;;10.2;7.6;;;;;;;24.53;21.11035;944.7816;;;;
2022/03/25 10:31:03;;;;;;;10.1;7.5;;;;;;;24.84;20.3584;944.7631;;;;
2022/03/25 10:33:28;;;;;;;10.5;7.5;;;;;;;24.78;21.08691;944.7683;;;;
2022/03/25 10:35:53;;;;;;;11.8;7.5;;;;;;;23.85;22.23145;944.6961;;;;
2022/03/25 10:38:19;;;;;;;11.9;7.2;;;;;;;23.68;22.08203;944.7354;;;;
2022/03/25 10:40:44;;;;;;;8.9;7.3;;;;;;;23.24;22.83594;944.7004;;;;
2022/03/25 10:43:11;;;;;;;14.7;7.7;;;;;;;23.35;22.98242;944.7045;;;;
2022/03/25 10:45:39;;;;;;;8.7;6.7;;;;;;;23.22;22.94043;944.803;;;;
2022/03/25 10:48:02;;;;;;;10;7.5;;;;;;;23.06;22.60352;944.699;;;;
2022/03/25 10:50:26;;;;;;;9.6;7;;;;;;;22.74;22.97461;944.6785;;;;
2022/03/25 10:52:51;;;;;;;11.6;7.5;;;;;;;23.13;23.53613;944.7212;;;;
2022/03/25 10:55:17;;;;;;;11.7;7.5;;;;;;;23.3;23.08496;944.7402;;;;
2022/03/25 10:57:41;;;;;;;10;7.5;;;;;;;23.5;22.54297;944.6418;;;;
2022/03/25 11:00:07;;;;;;;15.8;7.5;;;;;;;23.87;22.71484;944.5784;;;;
2022/03/25 11:02:32;;;;;;;10.7;7.3;;;;;;;23.92;21.75195;944.6094;;;;
2022/03/25 11:04:57;;;;;;;9.2;7;;;;;;;23.96;22.04883;944.5266;;;;
2022/03/25 11:07:24;;;;;;;12.8;7.7;;;;;;;23.79;21.83984;944.6002;;;;
2022/03/25 11:09:49;;;;;;;12.5;8;;;;;;;24.61;21.58594;944.5516;;;;
2022/03/25 11:12:14;;;;;;;10.5;7.3;;;;;;;25;21.02637;944.465;;;;
2022/03/25 11:14:39;;;;;;;10.3;7.5;;;;;;;24.18;21.15332;944.4888;;;;
2022/03/25 11:17:07;;;;;;;10.8;7.4;;;;;;;24.54;22.19531;944.4792;;;;
2022/03/25 11:19:30;;;;;;;9.3;7.2;;;;;;;25.46;21.54395;944.4783;;;;
2022/03/25 11:21:57;;;;;;;13.2;7.4;;;;;;;24.88;21.50391;944.4114;;;;
2022/03/25 11:24:20;;;;;;;12.2;8.3;;;;;;;24.27;22.60547;944.4918;;;;
2022/03/25 11:30:05;;;;;;;10.7;7.8;;;;;;;25.21;20.95313;944.3918;;;;
2022/03/25 11:32:29;;;;;;;10.4;7.2;;;;;;;26.11;21.37402;944.4233;;;;
2022/03/25 11:34:54;;;;;;;11.8;7.2;;;;;;;25.39;21.38672;944.2994;;;;
2022/03/25 11:37:19;;;;;;;10;7.5;;;;;;;24.43;22.31934;944.2933;;;;
2022/03/25 11:39:45;;;;;;;14.6;8.4;;;;;;;24.18;21.90625;944.2985;;;;
2022/03/25 11:42:10;;;;;;;10.4;7.9;;;;;;;24.66;21.54102;944.3051;;;;
2022/03/25 11:44:35;;;;;;;10.6;7.6;;;;;;;25.18;20.63379;944.1808;;;;
2022/03/25 11:47:00;;;;;;;11.1;7.9;;;;;;;25.11;20.77148;944.2863;;;;
2022/03/25 11:49:26;;;;;;;9.8;7.1;;;;;;;25.26;20.95605;944.2228;;;;
2022/03/25 11:51:51;;;;;;;11.8;8.1;;;;;;;26.1;19.5166;944.24;;;;
2022/03/25 11:54:16;;;;;;;10.7;7.7;;;;;;;25.53;20.25977;944.2553;;;;
2022/03/25 11:56:41;;;;;;;9.8;7.9;;;;;;;26.01;20.37598;944.1203;;;;
2022/03/25 11:59:08;;;;;;;11.6;7.8;;;;;;;25.3;19.97852;944.002;;;;
2022/03/25 12:01:32;;;;;;;9.5;7.4;;;;;;;25.25;20.35352;944.0422;;;;
2022/03/25 12:03:57;;;;;;;9.9;8.1;;;;;;;25.39;21.1748;944.0386;;;;
2022/03/25 12:06:22;;;;;;;12.5;8.1;;;;;;;24.74;20.18848;943.96;;;;
2022/03/25 12:08:47;;;;;;;12.7;7.6;;;;;;;25.27;19.74023;944.0097;;;;
2022/03/25 12:11:13;;;;;;;11.8;8.1;;;;;;;26.05;18.7334;943.9908;;;;
2022/03/25 12:13:37;;;;;;;10.4;8;;;;;;;26.47;18.27832;943.9436;;;;
2022/03/25 12:16:02;;;;;;;10.1;6.7;;;;;;;26.1;18.77148;943.9316;;;;
2022/03/25 12:18:27;;;;;;;10.4;6.9;;;;;;;26.74;18.5498;943.9958;;;;
2022/03/25 12:20:52;;;;;;;11;7.7;;;;;;;27.94;17.45898;943.8315;;;;
2022/03/25 12:23:17;;;;;;;10.9;7.6;;;;;;;27.41;18.03125;943.933;;;;
2022/03/25 12:25:43;;;;;;;13.2;7.7;;;;;;;27.98;17.55566;943.877;;;;
2022/03/25 12:28:08;;;;;;;11.2;7.8;;;;;;;28.55;17.22168;943.8707;;;;
2022/03/25 12:30:36;;;;;;;11.3;6.6;;;;;;;29.01;15.79785;943.8052;;;;
2022/03/25 12:33:00;;;;;;;11.1;7.3;;;;;;;29.27;16.11719;943.8217;;;;
2022/03/25 12:35:27;;;;;;;10.9;7.6;;;;;;;29.81;14.88379;943.8716;;;;
2022/03/25 12:37:52;;;;;;;9.8;7.7;;;;;;;29.44;15.50293;943.7819;;;;
2022/03/25 12:40:17;;;;;;;8.8;6.9;;;;;;;29.14;15.69531;943.7794;;;;
2022/03/25 12:42:42;;;;;;;9.3;7.1;;;;;;;30.74;14.62793;943.7564;;;;
2022/03/25 12:45:07;;;;;;;12.3;7.9;;;;;;;30.56;14.86035;943.6994;;;;
2022/03/25 12:47:33;;;;;;;9.1;7.1;;;;;;;30.94;14.62207;943.6906;;;;
2022/03/25 12:49:59;;;;;;;12.4;8;;;;;;;29.9;15.50684;943.7557;;;;
2022/03/25 12:52:23;;;;;;;11.8;8.5;;;;;;;29.85;15.13574;943.7264;;;;
2022/03/25 12:54:49;;;;;;;11.9;7.9;;;;;;;29.6;15.81934;943.7294;;;;
2022/03/25 12:57:14;;;;;;;12.8;8.4;;;;;;;29.95;15.56836;943.7629;;;;
2022/03/25 12:59:39;;;;;;;11.7;8.1;;;;;;;29.06;16.25195;943.6605;;;;
2022/03/25 13:02:04;;;;;;;11.6;8.1;;;;;;;29.3;15.37891;943.6972;;;;
2022/03/25 13:04:30;;;;;;;10.6;7.4;;;;;;;29.62;15.80762;943.6485;;;;
2022/03/25 13:06:56;;;;;;;9.3;7.6;;;;;;;29.18;15.68457;943.6786;;;;
2022/03/25 13:09:21;;;;;;;12.3;8.7;;;;;;;29.01;16.30957;943.5703;;;;
2022/03/25 13:11:46;;;;;;;10.7;8.2;;;;;;;27.01;17.71973;943.5438;;;;
2022/03/25 13:14:11;;;;;;;10.9;8.2;;;;;;;28.05;16.94043;943.5785;;;;
2022/03/25 13:16:36;;;;;;;11.3;8.1;;;;;;;29;16.07129;943.543;;;;
2022/03/25 13:19:01;;;;;;;11.2;8.3;;;;;;;28.99;16.05957;943.4386;;;;
2022/03/25 13:21:26;;;;;;;11.7;8.4;;;;;;;27.05;18.43262;943.4471;;;;
2022/03/25 13:23:53;;;;;;;11.3;8.1;;;;;;;28.02;17.12988;943.5025;;;;
2022/03/25 13:26:18;;;;;;;10.9;7.9;;;;;;;28.3;16.86621;943.5213;;;;
2022/03/25 13:28:45;;;;;;;14.5;8.5;;;;;;;26.64;18.37988;943.4807;;;;
2022/03/25 13:31:09;;;;;;;10.8;7.5;;;;;;;27.66;17.19824;943.4402;;;;
2022/03/25 13:33:35;;;;;;;10.8;7.8;;;;;;;26.14;18.91504;943.4006;;;;
2022/03/25 13:36:00;;;;;;;12.5;8.6;;;;;;;25.08;20.27441;943.4966;;;;
2022/03/25 13:38:25;;;;;;;12.1;8.7;;;;;;;24.11;20.99609;943.4764;;;;
2022/03/25 13:40:51;;;;;;;13;8.5;;;;;;;25.48;19.82031;943.452;;;;
2022/03/25 13:43:16;;;;;;;12.9;8.7;;;;;;;24.66;20.86914;943.4824;;;;
2022/03/25 13:45:41;;;;;;;11;8;;;;;;;24.93;20.23242;943.4612;;;;
2022/03/25 13:48:06;;;;;;;10;7.9;;;;;;;25.58;19.00977;943.4686;;;;
2022/03/25 13:50:31;;;;;;;14.1;8.5;;;;;;;26.3;18.81543;943.4545;;;;
2022/03/25 13:52:56;;;;;;;13.8;8.2;;;;;;;25.73;19.48926;943.3563;;;;
2022/03/25 13:55:21;;;;;;;11.1;8.6;;;;;;;25.02;20.2959;943.4832;;;;
2022/03/25 13:57:46;;;;;;;12.7;8.5;;;;;;;23.77;21.35645;943.3962;;;;
2022/03/25 14:00:11;;;;;;;12.1;8.3;;;;;;;24.21;20.56543;943.3621;;;;
2022/03/25 14:02:36;;;;;;;12;8.2;;;;;;;24.92;19.9375;943.3236;;;;
2022/03/25 14:05:02;;;;;;;13.5;8.2;;;;;;;25.03;19.71777;943.3535;;;;
2022/03/25 14:07:28;;;;;;;12.3;8.7;;;;;;;25.49;19.38379;943.3008;;;;
2022/03/25 14:09:52;;;;;;;14.5;9;;;;;;;25.38;19.80371;943.3892;;;;
2022/03/25 14:12:18;;;;;;;11.8;8.8;;;;;;;25.27;19.95313;943.35;;;;
2022/03/25 14:14:43;;;;;;;11.9;8.3;;;;;;;25.04;19.67188;943.3262;;;;
2022/03/25 14:17:08;;;;;;;11.8;8.2;;;;;;;24.89;19.85352;943.2866;;;;
2022/03/25 14:19:33;;;;;;;12.3;8.1;;;;;;;24.45;20.31738;943.2128;;;;
2022/03/25 14:21:58;;;;;;;13.3;9.2;;;;;;;23.11;22.40625;943.2683;;;;
2022/03/25 14:24:34;;;;;;;13;9.1;;;;;;;22.52;22.55273;943.2751;;;;
2022/03/25 14:26:49;;;;;;;13.7;9;;;;;;;22.25;22.92578;943.2505;;;;
2022/03/25 14:29:13;;;;;;;12.3;9;;;;;;;21.71;23.28418;943.1559;;;;
2022/03/25 14:31:39;;;;;;;12.9;8.5;;;;;;;21.06;24.25586;943.2209;;;;
2022/03/25 14:34:04;;;;;;;12.2;8.7;;;;;;;20.94;24.70605;943.2531;;;;
2022/03/25 14:36:29;;;;;;;13.3;8.9;;;;;;;20.95;24.0752;943.2214;;;;
2022/03/25 14:38:54;;;;;;;13.3;8.2;;;;;;;20.75;24.50781;943.229;;;;
2022/03/25 14:41:19;;;;;;;12.5;8.3;;;;;;;20.74;24.34375;943.1337;;;;
2022/03/25 14:43:44;;;;;;;14.2;8.9;;;;;;;20.54;25.40723;943.1498;;;;
2022/03/25 14:46:09;;;;;;;14.3;9.4;;;;;;;20.56;24.86035;943.1979;;;;
2022/03/25 14:48:34;;;;;;;12.1;9.3;;;;;;;20.37;24.83691;943.177;;;;